sensor_id;sensor_type;location;lat;lon;timestamp;P1;durP1;ratioP1;P2;durP2;ratioP2
28180;SDS011;15464;50.988;10.318;2024-02-21T00:00:44;14.38;;;4.40;;
28180;SDS011;15464;50.988;10.318;2024-02-21T00:03:11;16.42;;;4.60;;
28180;SDS011;15464;50.988;10.318;2024-02-21T00:05:38;12.70;;;4.45;;
28180;SDS011;15464;50.988;10.318;2024-02-21T00:08:04;12.02;;;4.13;;
28180;SDS011;15464;50.988;10.318;2024-02-21T00:10:31;13.75;;;4.90;;
28180;SDS011;15464;50.988;10.318;2024-02-21T00:12:58;17.83;;;4.50;;
28180;SDS011;15464;50.988;10.318;2024-02-21T00:15:26;14.00;;;4.78;;
28180;SDS011;15464;50.988;10.318;2024-02-21T00:17:52;14.77;;;4.95;;
28180;SDS011;15464;50.988;10.318;2024-02-21T00:20:19;15.95;;;5.28;;
28180;SDS011;15464;50.988;10.318;2024-02-21T00:22:46;15.68;;;5.38;;
28180;SDS011;15464;50.988;10.318;2024-02-21T00:25:13;16.40;;;5.15;;
28180;SDS011;15464;50.988;10.318;2024-02-21T00:27:40;15.95;;;5.35;;
28180;SDS011;15464;50.988;10.318;2024-02-21T00:30:07;15.13;;;4.65;;
28180;SDS011;15464;50.988;10.318;2024-02-21T00:32:34;14.85;;;5.32;;
28180;SDS011;15464;50.988;10.318;2024-02-21T00:35:01;18.88;;;5.22;;
28180;SDS011;15464;50.988;10.318;2024-02-21T00:37:28;12.63;;;4.53;;
28180;SDS011;15464;50.988;10.318;2024-02-21T00:39:55;12.82;;;4.32;;
28180;SDS011;15464;50.988;10.318;2024-02-21T00:42:21;16.10;;;4.57;;
28180;SDS011;15464;50.988;10.318;2024-02-21T00:44:48;12.93;;;5.15;;
28180;SDS011;15464;50.988;10.318;2024-02-21T00:47:15;12.90;;;4.50;;
28180;SDS011;15464;50.988;10.318;2024-02-21T00:49:42;14.00;;;5.32;;
28180;SDS011;15464;50.988;10.318;2024-02-21T00:52:08;17.33;;;5.75;;
28180;SDS011;15464;50.988;10.318;2024-02-21T00:54:35;12.52;;;4.40;;
28180;SDS011;15464;50.988;10.318;2024-02-21T00:57:15;14.13;;;5.45;;
28180;SDS011;15464;50.988;10.318;2024-02-21T00:59:42;14.40;;;4.95;;
28180;SDS011;15464;50.988;10.318;2024-02-21T01:02:09;18.90;;;5.22;;
28180;SDS011;15464;50.988;10.318;2024-02-21T01:04:36;15.27;;;5.32;;
28180;SDS011;15464;50.988;10.318;2024-02-21T01:07:03;16.33;;;5.30;;
28180;SDS011;15464;50.988;10.318;2024-02-21T01:09:30;16.52;;;5.32;;
28180;SDS011;15464;50.988;10.318;2024-02-21T01:11:56;14.60;;;5.22;;
28180;SDS011;15464;50.988;10.318;2024-02-21T01:14:23;14.85;;;5.13;;
28180;SDS011;15464;50.988;10.318;2024-02-21T01:16:50;14.73;;;5.90;;
28180;SDS011;15464;50.988;10.318;2024-02-21T01:19:17;16.08;;;5.53;;
28180;SDS011;15464;50.988;10.318;2024-02-21T01:21:43;11.85;;;4.78;;
28180;SDS011;15464;50.988;10.318;2024-02-21T01:24:10;11.13;;;5.03;;
28180;SDS011;15464;50.988;10.318;2024-02-21T01:26:37;15.50;;;4.97;;
28180;SDS011;15464;50.988;10.318;2024-02-21T01:29:03;12.65;;;4.97;;
28180;SDS011;15464;50.988;10.318;2024-02-21T01:31:30;12.02;;;5.00;;
28180;SDS011;15464;50.988;10.318;2024-02-21T01:33:57;12.45;;;4.95;;
28180;SDS011;15464;50.988;10.318;2024-02-21T01:36:24;17.05;;;5.13;;
28180;SDS011;15464;50.988;10.318;2024-02-21T01:38:51;13.27;;;4.75;;
28180;SDS011;15464;50.988;10.318;2024-02-21T01:41:17;13.30;;;4.68;;
28180;SDS011;15464;50.988;10.318;2024-02-21T01:43:44;13.07;;;4.90;;
28180;SDS011;15464;50.988;10.318;2024-02-21T01:46:11;16.58;;;5.47;;
28180;SDS011;15464;50.988;10.318;2024-02-21T01:48:38;13.43;;;4.85;;
28180;SDS011;15464;50.988;10.318;2024-02-21T01:51:05;14.15;;;5.18;;
28180;SDS011;15464;50.988;10.318;2024-02-21T01:53:36;14.55;;;4.88;;
28180;SDS011;15464;50.988;10.318;2024-02-21T01:56:05;13.35;;;5.20;;
28180;SDS011;15464;50.988;10.318;2024-02-21T01:58:32;15.48;;;5.35;;
28180;SDS011;15464;50.988;10.318;2024-02-21T02:01:03;15.75;;;5.72;;
28180;SDS011;15464;50.988;10.318;2024-02-21T02:03:30;10.85;;;5.07;;
28180;SDS011;15464;50.988;10.318;2024-02-21T02:05:57;17.75;;;5.28;;
28180;SDS011;15464;50.988;10.318;2024-02-21T02:08:24;15.63;;;5.03;;
28180;SDS011;15464;50.988;10.318;2024-02-21T02:10:51;13.75;;;5.43;;
28180;SDS011;15464;50.988;10.318;2024-02-21T02:13:18;12.80;;;5.03;;
28180;SDS011;15464;50.988;10.318;2024-02-21T02:15:45;15.25;;;6.05;;
28180;SDS011;15464;50.988;10.318;2024-02-21T02:18:16;14.82;;;6.15;;
28180;SDS011;15464;50.988;10.318;2024-02-21T02:20:44;16.50;;;6.40;;
28180;SDS011;15464;50.988;10.318;2024-02-21T02:23:20;13.60;;;4.85;;
28180;SDS011;15464;50.988;10.318;2024-02-21T02:25:48;12.70;;;5.28;;
28180;SDS011;15464;50.988;10.318;2024-02-21T02:28:18;14.13;;;5.35;;
28180;SDS011;15464;50.988;10.318;2024-02-21T02:30:45;18.13;;;6.20;;
28180;SDS011;15464;50.988;10.318;2024-02-21T02:33:12;14.32;;;5.57;;
28180;SDS011;15464;50.988;10.318;2024-02-21T02:35:40;18.20;;;6.00;;
28180;SDS011;15464;50.988;10.318;2024-02-21T02:38:06;16.40;;;6.03;;
28180;SDS011;15464;50.988;10.318;2024-02-21T02:40:33;15.43;;;6.03;;
28180;SDS011;15464;50.988;10.318;2024-02-21T02:43:01;14.07;;;5.43;;
28180;SDS011;15464;50.988;10.318;2024-02-21T02:45:28;12.38;;;5.80;;
28180;SDS011;15464;50.988;10.318;2024-02-21T02:47:55;16.02;;;6.38;;
28180;SDS011;15464;50.988;10.318;2024-02-21T02:50:24;15.03;;;5.70;;
28180;SDS011;15464;50.988;10.318;2024-02-21T02:52:52;13.35;;;6.07;;
28180;SDS011;15464;50.988;10.318;2024-02-21T02:55:19;14.63;;;5.93;;
28180;SDS011;15464;50.988;10.318;2024-02-21T02:57:46;16.80;;;5.93;;
28180;SDS011;15464;50.988;10.318;2024-02-21T03:00:14;20.52;;;6.30;;
28180;SDS011;15464;50.988;10.318;2024-02-21T03:02:42;15.25;;;5.80;;
28180;SDS011;15464;50.988;10.318;2024-02-21T03:05:13;16.33;;;5.93;;
28180;SDS011;15464;50.988;10.318;2024-02-21T03:07:42;15.68;;;5.40;;
28180;SDS011;15464;50.988;10.318;2024-02-21T03:10:10;13.82;;;6.50;;
28180;SDS011;15464;50.988;10.318;2024-02-21T03:12:37;16.63;;;6.20;;
28180;SDS011;15464;50.988;10.318;2024-02-21T03:15:04;15.15;;;6.25;;
28180;SDS011;15464;50.988;10.318;2024-02-21T03:17:32;18.90;;;6.80;;
28180;SDS011;15464;50.988;10.318;2024-02-21T03:20:01;17.65;;;5.85;;
28180;SDS011;15464;50.988;10.318;2024-02-21T03:22:31;15.73;;;5.93;;
28180;SDS011;15464;50.988;10.318;2024-02-21T03:24:59;19.13;;;5.75;;
28180;SDS011;15464;50.988;10.318;2024-02-21T03:27:26;19.52;;;7.07;;
28180;SDS011;15464;50.988;10.318;2024-02-21T03:29:53;15.40;;;6.05;;
28180;SDS011;15464;50.988;10.318;2024-02-21T03:32:20;15.48;;;6.38;;
28180;SDS011;15464;50.988;10.318;2024-02-21T03:34:46;16.92;;;6.13;;
28180;SDS011;15464;50.988;10.318;2024-02-21T03:37:13;16.58;;;6.35;;
28180;SDS011;15464;50.988;10.318;2024-02-21T03:39:41;14.57;;;5.63;;
28180;SDS011;15464;50.988;10.318;2024-02-21T03:42:08;14.80;;;6.75;;
28180;SDS011;15464;50.988;10.318;2024-02-21T03:44:34;14.38;;;6.22;;
28180;SDS011;15464;50.988;10.318;2024-02-21T03:47:01;15.68;;;6.05;;
28180;SDS011;15464;50.988;10.318;2024-02-21T03:49:28;16.80;;;6.22;;
28180;SDS011;15464;50.988;10.318;2024-02-21T03:51:55;14.18;;;5.72;;
28180;SDS011;15464;50.988;10.318;2024-02-21T03:54:22;18.73;;;6.13;;
28180;SDS011;15464;50.988;10.318;2024-02-21T03:56:49;18.50;;;6.35;;
28180;SDS011;15464;50.988;10.318;2024-02-21T03:59:16;14.98;;;6.60;;
28180;SDS011;15464;50.988;10.318;2024-02-21T04:01:43;19.30;;;7.13;;
28180;SDS011;15464;50.988;10.318;2024-02-21T04:04:10;17.98;;;6.65;;
28180;SDS011;15464;50.988;10.318;2024-02-21T04:06:45;20.25;;;6.05;;
28180;SDS011;15464;50.988;10.318;2024-02-21T04:09:15;15.68;;;5.68;;
28180;SDS011;15464;50.988;10.318;2024-02-21T04:11:42;13.88;;;5.72;;
28180;SDS011;15464;50.988;10.318;2024-02-21T04:14:09;16.77;;;6.82;;
28180;SDS011;15464;50.988;10.318;2024-02-21T04:16:38;14.38;;;7.10;;
28180;SDS011;15464;50.988;10.318;2024-02-21T04:19:05;16.92;;;5.90;;
28180;SDS011;15464;50.988;10.318;2024-02-21T04:21:32;14.88;;;6.63;;
28180;SDS011;15464;50.988;10.318;2024-02-21T04:23:59;12.60;;;5.57;;
28180;SDS011;15464;50.988;10.318;2024-02-21T04:26:27;14.55;;;6.28;;
28180;SDS011;15464;50.988;10.318;2024-02-21T04:28:54;15.45;;;5.80;;
28180;SDS011;15464;50.988;10.318;2024-02-21T04:31:21;16.40;;;7.10;;
28180;SDS011;15464;50.988;10.318;2024-02-21T04:33:48;14.77;;;6.15;;
28180;SDS011;15464;50.988;10.318;2024-02-21T04:36:14;15.70;;;6.00;;
28180;SDS011;15464;50.988;10.318;2024-02-21T04:38:41;9.75;;;5.88;;
28180;SDS011;15464;50.988;10.318;2024-02-21T04:41:08;16.98;;;6.25;;
28180;SDS011;15464;50.988;10.318;2024-02-21T04:43:35;14.30;;;6.38;;
28180;SDS011;15464;50.988;10.318;2024-02-21T04:46:01;13.85;;;6.10;;
28180;SDS011;15464;50.988;10.318;2024-02-21T04:48:28;14.63;;;5.85;;
28180;SDS011;15464;50.988;10.318;2024-02-21T04:50:55;11.88;;;5.85;;
28180;SDS011;15464;50.988;10.318;2024-02-21T04:53:21;14.30;;;6.18;;
28180;SDS011;15464;50.988;10.318;2024-02-21T04:55:48;13.45;;;5.95;;
28180;SDS011;15464;50.988;10.318;2024-02-21T04:58:15;15.10;;;6.93;;
28180;SDS011;15464;50.988;10.318;2024-02-21T05:00:42;12.20;;;6.50;;
28180;SDS011;15464;50.988;10.318;2024-02-21T05:03:08;13.02;;;6.40;;
28180;SDS011;15464;50.988;10.318;2024-02-21T05:05:35;15.30;;;6.85;;
28180;SDS011;15464;50.988;10.318;2024-02-21T05:08:02;14.10;;;6.13;;
28180;SDS011;15464;50.988;10.318;2024-02-21T05:10:30;13.13;;;5.97;;
28180;SDS011;15464;50.988;10.318;2024-02-21T05:12:57;16.55;;;6.40;;
28180;SDS011;15464;50.988;10.318;2024-02-21T05:15:24;18.02;;;6.45;;
28180;SDS011;15464;50.988;10.318;2024-02-21T05:17:51;17.70;;;7.15;;
28180;SDS011;15464;50.988;10.318;2024-02-21T05:20:18;13.45;;;6.40;;
28180;SDS011;15464;50.988;10.318;2024-02-21T05:22:45;11.38;;;6.28;;
28180;SDS011;15464;50.988;10.318;2024-02-21T05:25:12;12.85;;;6.70;;
28180;SDS011;15464;50.988;10.318;2024-02-21T05:27:39;14.32;;;6.65;;
28180;SDS011;15464;50.988;10.318;2024-02-21T05:30:06;14.57;;;6.38;;
28180;SDS011;15464;50.988;10.318;2024-02-21T05:32:33;16.83;;;7.05;;
28180;SDS011;15464;50.988;10.318;2024-02-21T05:35:00;14.85;;;6.95;;
28180;SDS011;15464;50.988;10.318;2024-02-21T05:37:27;15.30;;;7.03;;
28180;SDS011;15464;50.988;10.318;2024-02-21T05:39:53;14.55;;;6.97;;
28180;SDS011;15464;50.988;10.318;2024-02-21T05:42:20;18.48;;;7.18;;
28180;SDS011;15464;50.988;10.318;2024-02-21T05:44:47;11.73;;;5.97;;
28180;SDS011;15464;50.988;10.318;2024-02-21T05:47:13;15.70;;;6.95;;
28180;SDS011;15464;50.988;10.318;2024-02-21T05:49:42;16.58;;;6.90;;
28180;SDS011;15464;50.988;10.318;2024-02-21T05:52:09;16.65;;;8.25;;
28180;SDS011;15464;50.988;10.318;2024-02-21T05:54:37;13.63;;;7.03;;
28180;SDS011;15464;50.988;10.318;2024-02-21T05:57:05;17.08;;;8.00;;
28180;SDS011;15464;50.988;10.318;2024-02-21T05:59:33;16.00;;;8.43;;
28180;SDS011;15464;50.988;10.318;2024-02-21T06:02:02;14.32;;;7.35;;
28180;SDS011;15464;50.988;10.318;2024-02-21T06:04:30;17.58;;;8.43;;
28180;SDS011;15464;50.988;10.318;2024-02-21T06:06:57;14.00;;;7.57;;
28180;SDS011;15464;50.988;10.318;2024-02-21T06:09:24;14.52;;;7.72;;
28180;SDS011;15464;50.988;10.318;2024-02-21T06:11:51;17.20;;;8.73;;
28180;SDS011;15464;50.988;10.318;2024-02-21T06:14:18;15.95;;;8.32;;
28180;SDS011;15464;50.988;10.318;2024-02-21T06:16:46;16.58;;;8.55;;
28180;SDS011;15464;50.988;10.318;2024-02-21T06:19:13;16.70;;;8.63;;
28180;SDS011;15464;50.988;10.318;2024-02-21T06:21:39;18.15;;;9.13;;
28180;SDS011;15464;50.988;10.318;2024-02-21T06:24:06;17.85;;;9.07;;
28180;SDS011;15464;50.988;10.318;2024-02-21T06:26:33;17.30;;;8.45;;
28180;SDS011;15464;50.988;10.318;2024-02-21T06:29:00;14.57;;;7.80;;
28180;SDS011;15464;50.988;10.318;2024-02-21T06:31:28;18.08;;;8.52;;
28180;SDS011;15464;50.988;10.318;2024-02-21T06:33:55;18.10;;;9.27;;
28180;SDS011;15464;50.988;10.318;2024-02-21T06:36:25;19.92;;;8.95;;
28180;SDS011;15464;50.988;10.318;2024-02-21T06:38:52;17.30;;;8.32;;
28180;SDS011;15464;50.988;10.318;2024-02-21T06:41:19;22.00;;;9.73;;
28180;SDS011;15464;50.988;10.318;2024-02-21T06:43:46;18.70;;;8.20;;
28180;SDS011;15464;50.988;10.318;2024-02-21T06:46:26;18.00;;;8.57;;
28180;SDS011;15464;50.988;10.318;2024-02-21T06:48:56;17.67;;;8.77;;
28180;SDS011;15464;50.988;10.318;2024-02-21T06:51:24;15.82;;;8.75;;
28180;SDS011;15464;50.988;10.318;2024-02-21T06:56:20;17.70;;;8.30;;
28180;SDS011;15464;50.988;10.318;2024-02-21T06:58:53;14.48;;;8.52;;
28180;SDS011;15464;50.988;10.318;2024-02-21T07:01:20;15.10;;;8.70;;
28180;SDS011;15464;50.988;10.318;2024-02-21T07:03:47;19.50;;;8.63;;
28180;SDS011;15464;50.988;10.318;2024-02-21T07:06:13;17.05;;;8.32;;
28180;SDS011;15464;50.988;10.318;2024-02-21T07:08:40;20.75;;;8.48;;
28180;SDS011;15464;50.988;10.318;2024-02-21T07:11:07;16.77;;;8.38;;
28180;SDS011;15464;50.988;10.318;2024-02-21T07:13:34;15.30;;;7.30;;
28180;SDS011;15464;50.988;10.318;2024-02-21T07:16:00;16.75;;;8.57;;
28180;SDS011;15464;50.988;10.318;2024-02-21T07:18:27;19.55;;;9.43;;
28180;SDS011;15464;50.988;10.318;2024-02-21T07:20:54;18.73;;;8.88;;
28180;SDS011;15464;50.988;10.318;2024-02-21T07:23:20;17.00;;;9.10;;
28180;SDS011;15464;50.988;10.318;2024-02-21T07:25:47;18.30;;;9.15;;
28180;SDS011;15464;50.988;10.318;2024-02-21T07:28:14;20.13;;;9.10;;
28180;SDS011;15464;50.988;10.318;2024-02-21T07:30:43;15.43;;;8.70;;
28180;SDS011;15464;50.988;10.318;2024-02-21T07:33:10;14.45;;;7.60;;
28180;SDS011;15464;50.988;10.318;2024-02-21T07:35:36;13.05;;;7.80;;
28180;SDS011;15464;50.988;10.318;2024-02-21T07:38:08;18.65;;;8.35;;
28180;SDS011;15464;50.988;10.318;2024-02-21T07:40:39;14.63;;;8.00;;
28180;SDS011;15464;50.988;10.318;2024-02-21T07:43:06;18.33;;;9.02;;
28180;SDS011;15464;50.988;10.318;2024-02-21T07:45:32;15.80;;;7.82;;
28180;SDS011;15464;50.988;10.318;2024-02-21T07:47:59;17.10;;;8.32;;
28180;SDS011;15464;50.988;10.318;2024-02-21T07:50:26;16.83;;;7.97;;
28180;SDS011;15464;50.988;10.318;2024-02-21T07:52:53;21.23;;;7.65;;
28180;SDS011;15464;50.988;10.318;2024-02-21T07:55:20;16.20;;;8.18;;
28180;SDS011;15464;50.988;10.318;2024-02-21T07:57:46;17.60;;;7.95;;
28180;SDS011;15464;50.988;10.318;2024-02-21T08:00:13;17.23;;;8.43;;
28180;SDS011;15464;50.988;10.318;2024-02-21T08:02:47;15.27;;;7.88;;
28180;SDS011;15464;50.988;10.318;2024-02-21T08:05:15;15.10;;;7.83;;
28180;SDS011;15464;50.988;10.318;2024-02-21T08:07:42;16.95;;;8.20;;
28180;SDS011;15464;50.988;10.318;2024-02-21T08:10:09;17.38;;;7.65;;
28180;SDS011;15464;50.988;10.318;2024-02-21T08:12:35;18.60;;;7.72;;
28180;SDS011;15464;50.988;10.318;2024-02-21T08:15:02;22.75;;;7.78;;
28180;SDS011;15464;50.988;10.318;2024-02-21T08:17:30;15.57;;;7.20;;
28180;SDS011;15464;50.988;10.318;2024-02-21T08:19:57;14.95;;;7.00;;
28180;SDS011;15464;50.988;10.318;2024-02-21T08:22:23;13.73;;;7.32;;
28180;SDS011;15464;50.988;10.318;2024-02-21T08:24:52;15.87;;;7.10;;
28180;SDS011;15464;50.988;10.318;2024-02-21T08:27:20;17.05;;;7.18;;
28180;SDS011;15464;50.988;10.318;2024-02-21T08:29:46;13.25;;;7.25;;
28180;SDS011;15464;50.988;10.318;2024-02-21T08:32:13;16.77;;;6.43;;
28180;SDS011;15464;50.988;10.318;2024-02-21T08:34:40;12.90;;;6.85;;
28180;SDS011;15464;50.988;10.318;2024-02-21T08:37:06;14.40;;;6.63;;
28180;SDS011;15464;50.988;10.318;2024-02-21T08:39:34;19.48;;;6.78;;
28180;SDS011;15464;50.988;10.318;2024-02-21T08:42:01;15.77;;;7.28;;
28180;SDS011;15464;50.988;10.318;2024-02-21T08:44:28;16.15;;;7.28;;
28180;SDS011;15464;50.988;10.318;2024-02-21T08:46:55;15.32;;;7.30;;
28180;SDS011;15464;50.988;10.318;2024-02-21T08:49:23;10.48;;;5.90;;
28180;SDS011;15464;50.988;10.318;2024-02-21T08:51:57;13.52;;;6.82;;
28180;SDS011;15464;50.988;10.318;2024-02-21T08:54:24;11.25;;;5.90;;
28180;SDS011;15464;50.988;10.318;2024-02-21T08:56:50;12.88;;;5.80;;
28180;SDS011;15464;50.988;10.318;2024-02-21T08:59:17;12.27;;;5.65;;
28180;SDS011;15464;50.988;10.318;2024-02-21T09:01:43;13.00;;;5.47;;
28180;SDS011;15464;50.988;10.318;2024-02-21T09:04:10;9.57;;;5.47;;
28180;SDS011;15464;50.988;10.318;2024-02-21T09:06:37;11.63;;;5.57;;
28180;SDS011;15464;50.988;10.318;2024-02-21T09:09:08;13.23;;;6.15;;
28180;SDS011;15464;50.988;10.318;2024-02-21T09:11:36;13.32;;;5.45;;
28180;SDS011;15464;50.988;10.318;2024-02-21T09:14:03;11.57;;;5.85;;
28180;SDS011;15464;50.988;10.318;2024-02-21T09:16:31;11.98;;;5.88;;
28180;SDS011;15464;50.988;10.318;2024-02-21T09:18:59;12.43;;;5.30;;
28180;SDS011;15464;50.988;10.318;2024-02-21T09:21:26;8.65;;;4.97;;
28180;SDS011;15464;50.988;10.318;2024-02-21T09:23:54;12.43;;;6.20;;
28180;SDS011;15464;50.988;10.318;2024-02-21T09:26:25;11.13;;;5.80;;
28180;SDS011;15464;50.988;10.318;2024-02-21T09:28:51;10.27;;;5.57;;
28180;SDS011;15464;50.988;10.318;2024-02-21T09:31:18;13.77;;;6.18;;
28180;SDS011;15464;50.988;10.318;2024-02-21T09:33:46;11.85;;;6.40;;
28180;SDS011;15464;50.988;10.318;2024-02-21T09:36:13;12.68;;;6.93;;
28180;SDS011;15464;50.988;10.318;2024-02-21T09:38:40;11.90;;;6.72;;
28180;SDS011;15464;50.988;10.318;2024-02-21T09:41:15;11.88;;;5.93;;
28180;SDS011;15464;50.988;10.318;2024-02-21T09:43:49;14.30;;;6.32;;
28180;SDS011;15464;50.988;10.318;2024-02-21T09:46:17;14.88;;;7.78;;
28180;SDS011;15464;50.988;10.318;2024-02-21T09:48:54;16.52;;;7.72;;
28180;SDS011;15464;50.988;10.318;2024-02-21T09:51:32;16.27;;;7.93;;
28180;SDS011;15464;50.988;10.318;2024-02-21T09:54:01;12.45;;;7.75;;
28180;SDS011;15464;50.988;10.318;2024-02-21T09:56:41;14.80;;;7.28;;
28180;SDS011;15464;50.988;10.318;2024-02-21T09:59:08;15.38;;;7.85;;
28180;SDS011;15464;50.988;10.318;2024-02-21T10:01:36;18.75;;;8.73;;
28180;SDS011;15464;50.988;10.318;2024-02-21T10:04:03;18.02;;;8.63;;
28180;SDS011;15464;50.988;10.318;2024-02-21T10:06:31;13.13;;;7.45;;
28180;SDS011;15464;50.988;10.318;2024-02-21T10:08:59;16.05;;;7.43;;
28180;SDS011;15464;50.988;10.318;2024-02-21T10:11:26;14.52;;;7.00;;
28180;SDS011;15464;50.988;10.318;2024-02-21T10:14:08;14.63;;;7.20;;
28180;SDS011;15464;50.988;10.318;2024-02-21T10:16:35;16.85;;;7.07;;
28180;SDS011;15464;50.988;10.318;2024-02-21T10:19:04;16.57;;;7.53;;
28180;SDS011;15464;50.988;10.318;2024-02-21T10:21:31;12.38;;;6.55;;
28180;SDS011;15464;50.988;10.318;2024-02-21T10:23:58;11.45;;;6.30;;
28180;SDS011;15464;50.988;10.318;2024-02-21T10:26:24;10.63;;;6.35;;
28180;SDS011;15464;50.988;10.318;2024-02-21T10:28:51;13.05;;;6.00;;
28180;SDS011;15464;50.988;10.318;2024-02-21T10:31:26;12.43;;;5.20;;
28180;SDS011;15464;50.988;10.318;2024-02-21T10:33:57;19.42;;;6.63;;
28180;SDS011;15464;50.988;10.318;2024-02-21T10:36:26;12.05;;;5.78;;
28180;SDS011;15464;50.988;10.318;2024-02-21T10:38:53;11.18;;;5.13;;
28180;SDS011;15464;50.988;10.318;2024-02-21T10:41:21;10.00;;;4.95;;
28180;SDS011;15464;50.988;10.318;2024-02-21T10:43:50;13.10;;;5.43;;
28180;SDS011;15464;50.988;10.318;2024-02-21T10:46:21;11.98;;;4.70;;
28180;SDS011;15464;50.988;10.318;2024-02-21T10:51:43;10.27;;;4.93;;
28180;SDS011;15464;50.988;10.318;2024-02-21T10:56:40;14.70;;;4.78;;
28180;SDS011;15464;50.988;10.318;2024-02-21T10:59:07;9.02;;;4.60;;
28180;SDS011;15464;50.988;10.318;2024-02-21T11:01:34;12.55;;;4.47;;
28180;SDS011;15464;50.988;10.318;2024-02-21T11:04:03;9.40;;;4.28;;
28180;SDS011;15464;50.988;10.318;2024-02-21T11:06:35;11.77;;;4.35;;
28180;SDS011;15464;50.988;10.318;2024-02-21T11:09:04;9.57;;;4.00;;
28180;SDS011;15464;50.988;10.318;2024-02-21T11:11:39;8.13;;;3.73;;
28180;SDS011;15464;50.988;10.318;2024-02-21T11:14:08;9.55;;;4.80;;
28180;SDS011;15464;50.988;10.318;2024-02-21T11:16:44;9.65;;;4.25;;
28180;SDS011;15464;50.988;10.318;2024-02-21T11:21:48;11.20;;;5.07;;
28180;SDS011;15464;50.988;10.318;2024-02-21T11:24:31;13.95;;;5.63;;
28180;SDS011;15464;50.988;10.318;2024-02-21T11:29:40;9.35;;;4.97;;
28180;SDS011;15464;50.988;10.318;2024-02-21T11:32:14;11.55;;;5.53;;
28180;SDS011;15464;50.988;10.318;2024-02-21T11:34:41;10.43;;;4.93;;
28180;SDS011;15464;50.988;10.318;2024-02-21T11:37:34;7.18;;;4.22;;
28180;SDS011;15464;50.988;10.318;2024-02-21T11:40:06;10.82;;;5.78;;
28180;SDS011;15464;50.988;10.318;2024-02-21T11:42:38;14.07;;;5.63;;
28180;SDS011;15464;50.988;10.318;2024-02-21T11:45:05;10.80;;;5.93;;
28180;SDS011;15464;50.988;10.318;2024-02-21T11:47:32;12.50;;;5.75;;
28180;SDS011;15464;50.988;10.318;2024-02-21T11:50:00;9.10;;;5.75;;
28180;SDS011;15464;50.988;10.318;2024-02-21T11:52:27;10.30;;;6.70;;
28180;SDS011;15464;50.988;10.318;2024-02-21T11:54:55;10.20;;;5.32;;
28180;SDS011;15464;50.988;10.318;2024-02-21T11:57:30;10.80;;;5.35;;
28180;SDS011;15464;50.988;10.318;2024-02-21T11:59:57;12.32;;;5.18;;
28180;SDS011;15464;50.988;10.318;2024-02-21T12:02:27;9.95;;;5.35;;
28180;SDS011;15464;50.988;10.318;2024-02-21T12:04:55;12.25;;;5.60;;
28180;SDS011;15464;50.988;10.318;2024-02-21T12:07:22;10.60;;;4.72;;
28180;SDS011;15464;50.988;10.318;2024-02-21T12:09:50;8.60;;;4.82;;
28180;SDS011;15464;50.988;10.318;2024-02-21T12:12:19;11.73;;;5.80;;
28180;SDS011;15464;50.988;10.318;2024-02-21T12:14:53;12.15;;;5.57;;
28180;SDS011;15464;50.988;10.318;2024-02-21T12:17:24;11.85;;;4.95;;
28180;SDS011;15464;50.988;10.318;2024-02-21T12:19:51;8.05;;;4.45;;
28180;SDS011;15464;50.988;10.318;2024-02-21T12:22:18;8.50;;;4.50;;
28180;SDS011;15464;50.988;10.318;2024-02-21T12:24:46;8.63;;;4.40;;
28180;SDS011;15464;50.988;10.318;2024-02-21T12:27:14;9.20;;;4.43;;
28180;SDS011;15464;50.988;10.318;2024-02-21T12:29:40;9.98;;;3.90;;
28180;SDS011;15464;50.988;10.318;2024-02-21T12:32:07;8.75;;;3.95;;
28180;SDS011;15464;50.988;10.318;2024-02-21T12:34:34;11.45;;;3.85;;
28180;SDS011;15464;50.988;10.318;2024-02-21T12:37:18;6.93;;;3.47;;
28180;SDS011;15464;50.988;10.318;2024-02-21T12:39:47;10.43;;;4.10;;
28180;SDS011;15464;50.988;10.318;2024-02-21T12:42:14;11.65;;;4.28;;
28180;SDS011;15464;50.988;10.318;2024-02-21T12:44:41;11.65;;;3.40;;
28180;SDS011;15464;50.988;10.318;2024-02-21T12:47:08;8.07;;;4.10;;
28180;SDS011;15464;50.988;10.318;2024-02-21T12:49:35;9.70;;;3.70;;
28180;SDS011;15464;50.988;10.318;2024-02-21T12:52:04;9.05;;;3.95;;
28180;SDS011;15464;50.988;10.318;2024-02-21T12:54:30;10.38;;;3.78;;
28180;SDS011;15464;50.988;10.318;2024-02-21T12:56:57;9.02;;;3.85;;
28180;SDS011;15464;50.988;10.318;2024-02-21T12:59:29;7.18;;;3.60;;
28180;SDS011;15464;50.988;10.318;2024-02-21T13:01:56;9.50;;;2.80;;
28180;SDS011;15464;50.988;10.318;2024-02-21T13:04:23;8.88;;;3.45;;
28180;SDS011;15464;50.988;10.318;2024-02-21T13:06:50;8.05;;;3.85;;
28180;SDS011;15464;50.988;10.318;2024-02-21T13:09:16;8.68;;;3.50;;
28180;SDS011;15464;50.988;10.318;2024-02-21T13:11:43;10.60;;;3.58;;
28180;SDS011;15464;50.988;10.318;2024-02-21T13:14:13;8.93;;;3.00;;
28180;SDS011;15464;50.988;10.318;2024-02-21T13:16:40;7.80;;;3.00;;
28180;SDS011;15464;50.988;10.318;2024-02-21T13:19:07;7.00;;;3.38;;
28180;SDS011;15464;50.988;10.318;2024-02-21T13:21:35;11.73;;;3.45;;
28180;SDS011;15464;50.988;10.318;2024-02-21T13:24:02;9.95;;;3.15;;
28180;SDS011;15464;50.988;10.318;2024-02-21T13:26:29;9.38;;;3.13;;
28180;SDS011;15464;50.988;10.318;2024-02-21T13:28:56;6.40;;;3.45;;
28180;SDS011;15464;50.988;10.318;2024-02-21T13:31:22;7.97;;;3.00;;
28180;SDS011;15464;50.988;10.318;2024-02-21T13:33:51;7.28;;;3.03;;
28180;SDS011;15464;50.988;10.318;2024-02-21T13:36:18;7.60;;;2.65;;
28180;SDS011;15464;50.988;10.318;2024-02-21T13:38:45;9.68;;;3.10;;
28180;SDS011;15464;50.988;10.318;2024-02-21T13:41:13;8.52;;;3.15;;
28180;SDS011;15464;50.988;10.318;2024-02-21T13:43:40;7.32;;;3.00;;
28180;SDS011;15464;50.988;10.318;2024-02-21T13:46:07;8.02;;;3.05;;
28180;SDS011;15464;50.988;10.318;2024-02-21T13:48:36;6.75;;;2.53;;
28180;SDS011;15464;50.988;10.318;2024-02-21T13:51:03;8.50;;;3.00;;
28180;SDS011;15464;50.988;10.318;2024-02-21T13:53:31;6.78;;;2.50;;
28180;SDS011;15464;50.988;10.318;2024-02-21T13:55:58;9.07;;;2.85;;
28180;SDS011;15464;50.988;10.318;2024-02-21T13:58:24;6.40;;;2.38;;
28180;SDS011;15464;50.988;10.318;2024-02-21T14:00:53;8.52;;;2.83;;
28180;SDS011;15464;50.988;10.318;2024-02-21T14:03:20;7.10;;;2.70;;
28180;SDS011;15464;50.988;10.318;2024-02-21T14:05:47;7.18;;;2.67;;
28180;SDS011;15464;50.988;10.318;2024-02-21T14:08:17;9.25;;;3.50;;
28180;SDS011;15464;50.988;10.318;2024-02-21T14:10:44;6.18;;;2.53;;
28180;SDS011;15464;50.988;10.318;2024-02-21T14:13:11;7.78;;;3.42;;
28180;SDS011;15464;50.988;10.318;2024-02-21T14:15:39;8.07;;;2.90;;
28180;SDS011;15464;50.988;10.318;2024-02-21T14:18:08;6.75;;;2.90;;
28180;SDS011;15464;50.988;10.318;2024-02-21T14:20:36;4.43;;;2.30;;
28180;SDS011;15464;50.988;10.318;2024-02-21T14:23:03;5.78;;;2.55;;
28180;SDS011;15464;50.988;10.318;2024-02-21T14:25:31;7.93;;;3.17;;
28180;SDS011;15464;50.988;10.318;2024-02-21T14:27:59;6.82;;;3.42;;
28180;SDS011;15464;50.988;10.318;2024-02-21T14:32:55;7.75;;;2.60;;
28180;SDS011;15464;50.988;10.318;2024-02-21T14:35:23;5.32;;;2.65;;
28180;SDS011;15464;50.988;10.318;2024-02-21T14:37:50;5.18;;;2.55;;
28180;SDS011;15464;50.988;10.318;2024-02-21T14:40:17;7.07;;;2.40;;
28180;SDS011;15464;50.988;10.318;2024-02-21T14:42:45;6.90;;;2.78;;